sensor_id;sensor_type;location;lat;lon;timestamp;temperature;humidity
36280;DHT22;22317;47.936;12.742;2022-08-05T00:01:58;19.20;51.50
36280;DHT22;22317;47.936;12.742;2022-08-05T00:04:24;19.10;51.50
36280;DHT22;22317;47.936;12.742;2022-08-05T00:06:49;19.10;51.60
36280;DHT22;22317;47.936;12.742;2022-08-05T00:09:15;19.10;51.60
36280;DHT22;22317;47.936;12.742;2022-08-05T00:11:41;19.10;51.60
36280;DHT22;22317;47.936;12.742;2022-08-05T00:14:07;19.10;51.60
36280;DHT22;22317;47.936;12.742;2022-08-05T00:16:32;19.10;51.50
36280;DHT22;22317;47.936;12.742;2022-08-05T00:18:58;19.10;51.60
36280;DHT22;22317;47.936;12.742;2022-08-05T00:21:24;19.10;51.70
36280;DHT22;22317;47.936;12.742;2022-08-05T00:23:49;19.00;51.30
36280;DHT22;22317;47.936;12.742;2022-08-05T00:26:16;18.90;51.80
36280;DHT22;22317;47.936;12.742;2022-08-05T00:28:43;18.90;51.90
36280;DHT22;22317;47.936;12.742;2022-08-05T00:31:09;18.90;52.00
36280;DHT22;22317;47.936;12.742;2022-08-05T00:33:34;18.80;51.90
36280;DHT22;22317;47.936;12.742;2022-08-05T00:36:00;18.80;52.10
36280;DHT22;22317;47.936;12.742;2022-08-05T00:38:26;18.80;52.20
36280;DHT22;22317;47.936;12.742;2022-08-05T00:40:55;18.70;52.20
36280;DHT22;22317;47.936;12.742;2022-08-05T00:43:21;18.80;52.40
36280;DHT22;22317;47.936;12.742;2022-08-05T00:45:48;18.80;52.40
36280;DHT22;22317;47.936;12.742;2022-08-05T00:48:18;18.70;52.30
36280;DHT22;22317;47.936;12.742;2022-08-05T00:50:49;18.70;52.40
36280;DHT22;22317;47.936;12.742;2022-08-05T00:53:18;18.60;52.50
36280;DHT22;22317;47.936;12.742;2022-08-05T00:55:44;18.60;52.60
36280;DHT22;22317;47.936;12.742;2022-08-05T00:58:11;18.50;52.70
36280;DHT22;22317;47.936;12.742;2022-08-05T01:00:38;18.50;52.90
36280;DHT22;22317;47.936;12.742;2022-08-05T01:03:04;18.50;52.90
36280;DHT22;22317;47.936;12.742;2022-08-05T01:05:30;18.50;53.00
36280;DHT22;22317;47.936;12.742;2022-08-05T01:07:56;18.50;53.10
36280;DHT22;22317;47.936;12.742;2022-08-05T01:10:27;18.40;53.00
36280;DHT22;22317;47.936;12.742;2022-08-05T01:12:59;18.40;53.10
36280;DHT22;22317;47.936;12.742;2022-08-05T01:15:31;18.40;53.40
36280;DHT22;22317;47.936;12.742;2022-08-05T01:18:04;18.40;53.10
36280;DHT22;22317;47.936;12.742;2022-08-05T01:28:57;18.30;52.90
36280;DHT22;22317;47.936;12.742;2022-08-05T01:31:26;18.30;53.00
36280;DHT22;22317;47.936;12.742;2022-08-05T01:36:43;18.30;53.20
36280;DHT22;22317;47.936;12.742;2022-08-05T01:39:11;18.20;53.20
36280;DHT22;22317;47.936;12.742;2022-08-05T01:41:38;18.10;52.80
36280;DHT22;22317;47.936;12.742;2022-08-05T01:44:08;18.10;53.40
36280;DHT22;22317;47.936;12.742;2022-08-05T01:46:39;18.10;53.50
36280;DHT22;22317;47.936;12.742;2022-08-05T01:49:07;18.10;53.60
36280;DHT22;22317;47.936;12.742;2022-08-05T01:51:35;18.00;53.60
36280;DHT22;22317;47.936;12.742;2022-08-05T01:54:07;18.00;53.70
36280;DHT22;22317;47.936;12.742;2022-08-05T01:56:40;18.00;53.50
36280;DHT22;22317;47.936;12.742;2022-08-05T01:59:11;18.00;54.00
36280;DHT22;22317;47.936;12.742;2022-08-05T02:01:38;18.00;53.90
36280;DHT22;22317;47.936;12.742;2022-08-05T02:04:09;17.90;54.00
36280;DHT22;22317;47.936;12.742;2022-08-05T02:06:35;18.00;53.70
36280;DHT22;22317;47.936;12.742;2022-08-05T02:09:02;17.90;54.00
36280;DHT22;22317;47.936;12.742;2022-08-05T02:11:46;17.90;54.00
36280;DHT22;22317;47.936;12.742;2022-08-05T02:14:39;17.90;54.20
36280;DHT22;22317;47.936;12.742;2022-08-05T02:17:18;17.80;53.70
36280;DHT22;22317;47.936;12.742;2022-08-05T02:19:52;17.80;54.20
36280;DHT22;22317;47.936;12.742;2022-08-05T02:22:28;17.80;54.10
36280;DHT22;22317;47.936;12.742;2022-08-05T02:25:02;17.70;53.80
36280;DHT22;22317;47.936;12.742;2022-08-05T02:27:39;17.70;54.30
36280;DHT22;22317;47.936;12.742;2022-08-05T02:30:08;17.70;55.10
36280;DHT22;22317;47.936;12.742;2022-08-05T02:32:38;17.70;54.40
36280;DHT22;22317;47.936;12.742;2022-08-05T02:35:15;17.70;53.80
36280;DHT22;22317;47.936;12.742;2022-08-05T02:37:45;17.70;54.50
36280;DHT22;22317;47.936;12.742;2022-08-05T02:40:15;17.70;54.40
36280;DHT22;22317;47.936;12.742;2022-08-05T02:42:42;17.70;54.40
36280;DHT22;22317;47.936;12.742;2022-08-05T02:45:08;17.60;53.80
36280;DHT22;22317;47.936;12.742;2022-08-05T02:47:35;17.60;54.30
36280;DHT22;22317;47.936;12.742;2022-08-05T02:50:03;17.60;54.40
36280;DHT22;22317;47.936;12.742;2022-08-05T02:52:30;17.60;54.50
36280;DHT22;22317;47.936;12.742;2022-08-05T02:54:59;17.50;54.10
36280;DHT22;22317;47.936;12.742;2022-08-05T02:57:26;17.50;54.70
36280;DHT22;22317;47.936;12.742;2022-08-05T02:59:52;17.50;54.70
36280;DHT22;22317;47.936;12.742;2022-08-05T03:02:28;17.50;54.80
36280;DHT22;22317;47.936;12.742;2022-08-05T03:05:02;17.50;54.40
36280;DHT22;22317;47.936;12.742;2022-08-05T03:07:32;17.40;55.00
36280;DHT22;22317;47.936;12.742;2022-08-05T03:09:59;17.40;55.00
36280;DHT22;22317;47.936;12.742;2022-08-05T03:12:43;17.40;54.50
36280;DHT22;22317;47.936;12.742;2022-08-05T03:15:14;17.40;54.50
36280;DHT22;22317;47.936;12.742;2022-08-05T03:17:43;17.40;55.10
36280;DHT22;22317;47.936;12.742;2022-08-05T03:20:10;17.40;55.10
36280;DHT22;22317;47.936;12.742;2022-08-05T03:22:36;17.40;55.10
36280;DHT22;22317;47.936;12.742;2022-08-05T03:25:01;17.30;54.50
36280;DHT22;22317;47.936;12.742;2022-08-05T03:27:33;17.30;54.60
36280;DHT22;22317;47.936;12.742;2022-08-05T03:29:59;17.30;55.20
36280;DHT22;22317;47.936;12.742;2022-08-05T03:32:34;17.30;55.20
36280;DHT22;22317;47.936;12.742;2022-08-05T03:35:09;17.30;54.70
36280;DHT22;22317;47.936;12.742;2022-08-05T03:37:35;17.30;55.30
36280;DHT22;22317;47.936;12.742;2022-08-05T03:40:01;17.30;55.20
36280;DHT22;22317;47.936;12.742;2022-08-05T03:42:28;17.30;55.40
36280;DHT22;22317;47.936;12.742;2022-08-05T03:44:54;17.20;55.00
36280;DHT22;22317;47.936;12.742;2022-08-05T03:47:20;17.20;55.00
36280;DHT22;22317;47.936;12.742;2022-08-05T03:49:49;17.30;55.60
36280;DHT22;22317;47.936;12.742;2022-08-05T03:52:22;17.30;55.70
36280;DHT22;22317;47.936;12.742;2022-08-05T03:54:58;17.30;55.10
36280;DHT22;22317;47.936;12.742;2022-08-05T03:57:30;17.30;55.70
36280;DHT22;22317;47.936;12.742;2022-08-05T04:00:06;17.40;55.70
36280;DHT22;22317;47.936;12.742;2022-08-05T04:02:43;17.50;55.70
36280;DHT22;22317;47.936;12.742;2022-08-05T04:05:10;17.50;55.00
36280;DHT22;22317;47.936;12.742;2022-08-05T04:07:40;17.50;55.50
36280;DHT22;22317;47.936;12.742;2022-08-05T04:10:07;17.60;55.40
36280;DHT22;22317;47.936;12.742;2022-08-05T04:12:34;17.50;55.30
36280;DHT22;22317;47.936;12.742;2022-08-05T04:15:00;17.60;54.80
36280;DHT22;22317;47.936;12.742;2022-08-05T04:17:26;17.60;55.40
36280;DHT22;22317;47.936;12.742;2022-08-05T04:19:52;17.60;55.40
36280;DHT22;22317;47.936;12.742;2022-08-05T04:22:18;17.60;55.40
36280;DHT22;22317;47.936;12.742;2022-08-05T04:24:44;17.70;55.40
36280;DHT22;22317;47.936;12.742;2022-08-05T04:27:12;17.70;55.00
36280;DHT22;22317;47.936;12.742;2022-08-05T04:29:38;17.70;55.30
36280;DHT22;22317;47.936;12.742;2022-08-05T04:32:04;17.80;55.30
36280;DHT22;22317;47.936;12.742;2022-08-05T04:34:30;17.90;55.30
36280;DHT22;22317;47.936;12.742;2022-08-05T04:36:56;17.90;54.90
36280;DHT22;22317;47.936;12.742;2022-08-05T04:39:22;18.00;55.20
36280;DHT22;22317;47.936;12.742;2022-08-05T04:41:48;18.00;55.20
36280;DHT22;22317;47.936;12.742;2022-08-05T04:44:14;18.00;55.10
36280;DHT22;22317;47.936;12.742;2022-08-05T04:46:40;18.10;54.80
36280;DHT22;22317;47.936;12.742;2022-08-05T04:49:06;18.20;55.20
36280;DHT22;22317;47.936;12.742;2022-08-05T04:51:32;15.20;53.60
36280;DHT22;22317;47.936;12.742;2022-08-05T04:53:58;18.30;55.20
36280;DHT22;22317;47.936;12.742;2022-08-05T04:56:24;18.40;54.70
36280;DHT22;22317;47.936;12.742;2022-08-05T04:58:50;18.40;55.00
36280;DHT22;22317;47.936;12.742;2022-08-05T05:01:16;18.50;55.00
36280;DHT22;22317;47.936;12.742;2022-08-05T05:03:42;18.50;54.80
36280;DHT22;22317;47.936;12.742;2022-08-05T05:06:12;18.60;54.70
36280;DHT22;22317;47.936;12.742;2022-08-05T05:08:38;18.60;54.70
36280;DHT22;22317;47.936;12.742;2022-08-05T05:11:04;18.70;54.70
36280;DHT22;22317;47.936;12.742;2022-08-05T05:13:30;18.70;54.60
36280;DHT22;22317;47.936;12.742;2022-08-05T05:15:57;18.80;54.20
36280;DHT22;22317;47.936;12.742;2022-08-05T05:18:23;18.80;54.60
36280;DHT22;22317;47.936;12.742;2022-08-05T05:20:49;18.80;54.50
36280;DHT22;22317;47.936;12.742;2022-08-05T05:23:15;18.90;54.50
36280;DHT22;22317;47.936;12.742;2022-08-05T05:25:42;18.90;54.40
36280;DHT22;22317;47.936;12.742;2022-08-05T05:28:08;19.00;54.50
36280;DHT22;22317;47.936;12.742;2022-08-05T05:30:34;19.10;54.50
36280;DHT22;22317;47.936;12.742;2022-08-05T05:33:02;19.10;54.50
36280;DHT22;22317;47.936;12.742;2022-08-05T05:35:29;19.20;54.50
36280;DHT22;22317;47.936;12.742;2022-08-05T05:37:57;19.20;54.40
36280;DHT22;22317;47.936;12.742;2022-08-05T05:40:25;19.20;54.40
36280;DHT22;22317;47.936;12.742;2022-08-05T05:42:52;19.30;54.50
36280;DHT22;22317;47.936;12.742;2022-08-05T05:45:18;19.40;54.00
36280;DHT22;22317;47.936;12.742;2022-08-05T05:47:44;19.40;54.40
36280;DHT22;22317;47.936;12.742;2022-08-05T05:50:16;19.50;54.30
36280;DHT22;22317;47.936;12.742;2022-08-05T05:52:43;19.60;54.30
36280;DHT22;22317;47.936;12.742;2022-08-05T05:55:11;19.70;53.70
36280;DHT22;22317;47.936;12.742;2022-08-05T05:57:38;19.70;54.20
36280;DHT22;22317;47.936;12.742;2022-08-05T06:00:07;19.80;54.20
36280;DHT22;22317;47.936;12.742;2022-08-05T06:02:37;19.90;54.20
36280;DHT22;22317;47.936;12.742;2022-08-05T06:05:05;20.00;53.60
36280;DHT22;22317;47.936;12.742;2022-08-05T06:07:31;19.90;54.00
36280;DHT22;22317;47.936;12.742;2022-08-05T06:09:57;20.00;54.00
36280;DHT22;22317;47.936;12.742;2022-08-05T06:12:22;20.00;54.00
36280;DHT22;22317;47.936;12.742;2022-08-05T06:14:48;20.00;54.00
36280;DHT22;22317;47.936;12.742;2022-08-05T06:17:14;20.20;54.10
36280;DHT22;22317;47.936;12.742;2022-08-05T06:19:40;20.20;54.00
36280;DHT22;22317;47.936;12.742;2022-08-05T06:22:06;20.30;53.80
36280;DHT22;22317;47.936;12.742;2022-08-05T06:24:33;20.40;53.70
36280;DHT22;22317;47.936;12.742;2022-08-05T06:26:59;20.50;53.80
36280;DHT22;22317;47.936;12.742;2022-08-05T06:29:25;20.60;53.70
36280;DHT22;22317;47.936;12.742;2022-08-05T06:31:51;20.70;53.30
36280;DHT22;22317;47.936;12.742;2022-08-05T06:34:17;20.80;53.80
36280;DHT22;22317;47.936;12.742;2022-08-05T06:36:43;20.90;53.60
36280;DHT22;22317;47.936;12.742;2022-08-05T06:39:09;21.00;53.90
36280;DHT22;22317;47.936;12.742;2022-08-05T06:41:35;21.10;53.70
36280;DHT22;22317;47.936;12.742;2022-08-05T06:44:00;21.20;53.50
36280;DHT22;22317;47.936;12.742;2022-08-05T06:46:26;21.30;53.30
36280;DHT22;22317;47.936;12.742;2022-08-05T06:48:52;21.40;53.10
36280;DHT22;22317;47.936;12.742;2022-08-05T06:51:18;21.50;52.90
36280;DHT22;22317;47.936;12.742;2022-08-05T06:53:43;21.70;52.80
36280;DHT22;22317;47.936;12.742;2022-08-05T06:56:09;21.80;52.70
36280;DHT22;22317;47.936;12.742;2022-08-05T06:58:35;21.90;52.50
36280;DHT22;22317;47.936;12.742;2022-08-05T07:01:02;22.00;52.60
36280;DHT22;22317;47.936;12.742;2022-08-05T07:03:28;22.10;52.30
36280;DHT22;22317;47.936;12.742;2022-08-05T07:05:55;22.30;52.10
36280;DHT22;22317;47.936;12.742;2022-08-05T07:08:20;22.40;51.80
36280;DHT22;22317;47.936;12.742;2022-08-05T07:10:50;22.50;51.50
36280;DHT22;22317;47.936;12.742;2022-08-05T07:13:16;22.70;51.30
36280;DHT22;22317;47.936;12.742;2022-08-05T07:16:00;22.80;51.20
36280;DHT22;22317;47.936;12.742;2022-08-05T07:18:45;22.90;50.80
36280;DHT22;22317;47.936;12.742;2022-08-05T07:21:10;23.10;50.60
36280;DHT22;22317;47.936;12.742;2022-08-05T07:23:36;23.20;50.30
36280;DHT22;22317;47.936;12.742;2022-08-05T07:26:03;23.40;50.20
36280;DHT22;22317;47.936;12.742;2022-08-05T07:28:29;23.50;49.70
36280;DHT22;22317;47.936;12.742;2022-08-05T07:30:55;23.70;49.30
36280;DHT22;22317;47.936;12.742;2022-08-05T07:33:21;23.80;48.90
36280;DHT22;22317;47.936;12.742;2022-08-05T07:35:48;23.90;48.70
36280;DHT22;22317;47.936;12.742;2022-08-05T07:38:15;24.10;48.30
36280;DHT22;22317;47.936;12.742;2022-08-05T07:40:41;24.20;47.70
36280;DHT22;22317;47.936;12.742;2022-08-05T07:43:09;24.30;47.20
36280;DHT22;22317;47.936;12.742;2022-08-05T07:45:35;24.50;47.10
36280;DHT22;22317;47.936;12.742;2022-08-05T07:48:00;24.60;46.60
36280;DHT22;22317;47.936;12.742;2022-08-05T07:50:26;24.80;45.90
36280;DHT22;22317;47.936;12.742;2022-08-05T07:52:52;24.90;45.40
36280;DHT22;22317;47.936;12.742;2022-08-05T07:55:18;25.10;45.30
36280;DHT22;22317;47.936;12.742;2022-08-05T07:57:44;25.30;45.20
36280;DHT22;22317;47.936;12.742;2022-08-05T08:00:10;25.50;44.60
36280;DHT22;22317;47.936;12.742;2022-08-05T08:02:38;25.60;43.80
36280;DHT22;22317;47.936;12.742;2022-08-05T08:05:04;25.70;43.40
36280;DHT22;22317;47.936;12.742;2022-08-05T08:07:30;25.90;42.70
36280;DHT22;22317;47.936;12.742;2022-08-05T08:09:57;26.00;42.30
36280;DHT22;22317;47.936;12.742;2022-08-05T08:12:23;26.10;41.90
36280;DHT22;22317;47.936;12.742;2022-08-05T08:14:50;26.20;41.70
36280;DHT22;22317;47.936;12.742;2022-08-05T08:17:15;26.30;41.50
36280;DHT22;22317;47.936;12.742;2022-08-05T08:19:42;26.40;41.20
36280;DHT22;22317;47.936;12.742;2022-08-05T08:22:09;26.50;41.10
36280;DHT22;22317;47.936;12.742;2022-08-05T08:24:35;26.70;40.80
36280;DHT22;22317;47.936;12.742;2022-08-05T08:27:01;26.80;40.60
36280;DHT22;22317;47.936;12.742;2022-08-05T08:29:27;26.90;40.00
36280;DHT22;22317;47.936;12.742;2022-08-05T08:31:53;27.00;39.40
36280;DHT22;22317;47.936;12.742;2022-08-05T08:34:21;27.10;39.20
36280;DHT22;22317;47.936;12.742;2022-08-05T08:36:48;27.10;38.60
36280;DHT22;22317;47.936;12.742;2022-08-05T08:39:14;27.20;38.40
36280;DHT22;22317;47.936;12.742;2022-08-05T08:41:43;27.20;38.20
36280;DHT22;22317;47.936;12.742;2022-08-05T08:44:11;27.20;38.00
36280;DHT22;22317;47.936;12.742;2022-08-05T08:46:38;27.30;37.90
36280;DHT22;22317;47.936;12.742;2022-08-05T08:49:05;27.40;37.90
36280;DHT22;22317;47.936;12.742;2022-08-05T08:51:33;27.40;37.90
36280;DHT22;22317;47.936;12.742;2022-08-05T08:53:59;27.50;37.80
36280;DHT22;22317;47.936;12.742;2022-08-05T08:56:26;27.60;37.70
36280;DHT22;22317;47.936;12.742;2022-08-05T08:58:51;27.70;37.60
36280;DHT22;22317;47.936;12.742;2022-08-05T09:01:18;27.80;37.20
36280;DHT22;22317;47.936;12.742;2022-08-05T09:03:50;27.90;36.70
36280;DHT22;22317;47.936;12.742;2022-08-05T09:06:17;27.90;36.00
36280;DHT22;22317;47.936;12.742;2022-08-05T09:08:42;28.00;36.10
36280;DHT22;22317;47.936;12.742;2022-08-05T09:11:08;28.00;36.10
36280;DHT22;22317;47.936;12.742;2022-08-05T09:13:35;28.10;36.10
36280;DHT22;22317;47.936;12.742;2022-08-05T09:16:02;28.20;36.20
36280;DHT22;22317;47.936;12.742;2022-08-05T09:18:28;28.30;36.20
36280;DHT22;22317;47.936;12.742;2022-08-05T09:20:54;28.40;36.00
36280;DHT22;22317;47.936;12.742;2022-08-05T09:23:20;28.50;35.80
36280;DHT22;22317;47.936;12.742;2022-08-05T09:25:51;28.60;35.80
36280;DHT22;22317;47.936;12.742;2022-08-05T09:28:20;28.70;35.90
36280;DHT22;22317;47.936;12.742;2022-08-05T09:30:53;28.90;35.90
36280;DHT22;22317;47.936;12.742;2022-08-05T09:33:20;28.90;35.60
36280;DHT22;22317;47.936;12.742;2022-08-05T09:35:56;29.00;35.50
36280;DHT22;22317;47.936;12.742;2022-08-05T09:38:23;29.20;35.30
36280;DHT22;22317;47.936;12.742;2022-08-05T09:40:49;29.30;35.60
36280;DHT22;22317;47.936;12.742;2022-08-05T09:43:44;29.30;35.20
36280;DHT22;22317;47.936;12.742;2022-08-05T09:46:28;29.40;34.60
36280;DHT22;22317;47.936;12.742;2022-08-05T09:48:56;29.40;34.90
36280;DHT22;22317;47.936;12.742;2022-08-05T09:51:36;29.50;35.30
36280;DHT22;22317;47.936;12.742;2022-08-05T09:54:04;29.60;35.30
36280;DHT22;22317;47.936;12.742;2022-08-05T09:56:34;29.70;35.10
36280;DHT22;22317;47.936;12.742;2022-08-05T09:59:08;29.80;34.60
36280;DHT22;22317;47.936;12.742;2022-08-05T10:01:35;29.80;34.00
36280;DHT22;22317;47.936;12.742;2022-08-05T10:04:07;29.80;33.90
36280;DHT22;22317;47.936;12.742;2022-08-05T10:06:33;29.80;33.40
36280;DHT22;22317;47.936;12.742;2022-08-05T10:09:13;29.90;33.50
36280;DHT22;22317;47.936;12.742;2022-08-05T10:11:40;29.90;33.30
36280;DHT22;22317;47.936;12.742;2022-08-05T10:14:28;30.00;33.70
36280;DHT22;22317;47.936;12.742;2022-08-05T10:16:55;30.00;33.20
36280;DHT22;22317;47.936;12.742;2022-08-05T10:19:23;30.10;33.40
36280;DHT22;22317;47.936;12.742;2022-08-05T10:21:52;30.20;33.40
36280;DHT22;22317;47.936;12.742;2022-08-05T10:24:19;30.20;33.10
36280;DHT22;22317;47.936;12.742;2022-08-05T10:26:47;30.30;33.20
36280;DHT22;22317;47.936;12.742;2022-08-05T10:29:14;30.30;32.70
36280;DHT22;22317;47.936;12.742;2022-08-05T10:31:40;30.30;32.40
36280;DHT22;22317;47.936;12.742;2022-08-05T10:34:07;30.30;32.80
36280;DHT22;22317;47.936;12.742;2022-08-05T10:36:36;30.30;32.70
36280;DHT22;22317;47.936;12.742;2022-08-05T10:39:29;30.30;32.60
36280;DHT22;22317;47.936;12.742;2022-08-05T10:41:58;30.30;32.50
36280;DHT22;22317;47.936;12.742;2022-08-05T10:44:26;30.30;32.70
36280;DHT22;22317;47.936;12.742;2022-08-05T10:47:09;30.40;32.90
36280;DHT22;22317;47.936;12.742;2022-08-05T10:50:06;30.50;32.90
36280;DHT22;22317;47.936;12.742;2022-08-05T10:52:42;30.60;32.30
36280;DHT22;22317;47.936;12.742;2022-08-05T10:55:11;30.70;32.30
36280;DHT22;22317;47.936;12.742;2022-08-05T10:57:39;30.80;32.30
36280;DHT22;22317;47.936;12.742;2022-08-05T11:00:17;30.80;31.70
36280;DHT22;22317;47.936;12.742;2022-08-05T11:05:29;31.00;31.90
36280;DHT22;22317;47.936;12.742;2022-08-05T11:07:56;31.10;31.90
36280;DHT22;22317;47.936;12.742;2022-08-05T11:10:24;31.30;32.00
36280;DHT22;22317;47.936;12.742;2022-08-05T11:12:50;31.40;31.80
36280;DHT22;22317;47.936;12.742;2022-08-05T11:17:54;31.80;31.30
36280;DHT22;22317;47.936;12.742;2022-08-05T11:35:59;32.40;29.70
36280;DHT22;22317;47.936;12.742;2022-08-05T11:43:32;32.30;29.80
36280;DHT22;22317;47.936;12.742;2022-08-05T11:45:59;32.30;29.80
36280;DHT22;22317;47.936;12.742;2022-08-05T11:48:26;32.30;29.80
36280;DHT22;22317;47.936;12.742;2022-08-05T11:50:53;32.30;29.80
36280;DHT22;22317;47.936;12.742;2022-08-05T11:53:20;32.40;30.00
36280;DHT22;22317;47.936;12.742;2022-08-05T11:56:00;32.60;29.80
36280;DHT22;22317;47.936;12.742;2022-08-05T11:58:33;32.70;29.30
36280;DHT22;22317;47.936;12.742;2022-08-05T12:01:11;32.80;29.40
36280;DHT22;22317;47.936;12.742;2022-08-05T12:06:09;32.80;29.10
36280;DHT22;22317;47.936;12.742;2022-08-05T12:11:07;32.80;28.80
36280;DHT22;22317;47.936;12.742;2022-08-05T12:13:33;32.70;28.70
36280;DHT22;22317;47.936;12.742;2022-08-05T12:15:59;32.70;28.80
36280;DHT22;22317;47.936;12.742;2022-08-05T12:18:33;32.80;29.10
36280;DHT22;22317;47.936;12.742;2022-08-05T12:21:32;32.70;28.90
36280;DHT22;22317;47.936;12.742;2022-08-05T12:24:10;32.80;28.80
36280;DHT22;22317;47.936;12.742;2022-08-05T12:29:07;32.90;29.30
36280;DHT22;22317;47.936;12.742;2022-08-05T12:31:34;33.10;29.10
36280;DHT22;22317;47.936;12.742;2022-08-05T12:34:01;33.20;28.80
36280;DHT22;22317;47.936;12.742;2022-08-05T12:36:28;33.20;28.60
36280;DHT22;22317;47.936;12.742;2022-08-05T12:38:56;33.20;28.50
36280;DHT22;22317;47.936;12.742;2022-08-05T12:41:23;33.20;28.30
36280;DHT22;22317;47.936;12.742;2022-08-05T12:43:56;33.20;28.30
36280;DHT22;22317;47.936;12.742;2022-08-05T12:46:30;33.20;28.70
36280;DHT22;22317;47.936;12.742;2022-08-05T12:51:55;33.30;28.50
36280;DHT22;22317;47.936;12.742;2022-08-05T12:54:30;33.50;28.80
36280;DHT22;22317;47.936;12.742;2022-08-05T12:57:04;33.70;28.80
36280;DHT22;22317;47.936;12.742;2022-08-05T12:59:32;33.90;28.20
36280;DHT22;22317;47.936;12.742;2022-08-05T13:02:05;34.10;27.90
36280;DHT22;22317;47.936;12.742;2022-08-05T13:04:41;34.20;27.60
36280;DHT22;22317;47.936;12.742;2022-08-05T13:07:13;34.20;27.30
36280;DHT22;22317;47.936;12.742;2022-08-05T13:09:53;34.20;27.30
36280;DHT22;22317;47.936;12.742;2022-08-05T13:12:22;34.20;27.10
36280;DHT22;22317;47.936;12.742;2022-08-05T13:14:51;34.20;27.20
36280;DHT22;22317;47.936;12.742;2022-08-05T13:17:22;34.10;27.10
36280;DHT22;22317;47.936;12.742;2022-08-05T13:20:03;34.20;27.20
36280;DHT22;22317;47.936;12.742;2022-08-05T13:22:34;34.30;27.20
36280;DHT22;22317;47.936;12.742;2022-08-05T13:25:03;34.40;27.00
36280;DHT22;22317;47.936;12.742;2022-08-05T13:27:31;34.40;26.80
36280;DHT22;22317;47.936;12.742;2022-08-05T13:29:58;34.40;27.00
36280;DHT22;22317;47.936;12.742;2022-08-05T13:32:24;34.60;27.30
36280;DHT22;22317;47.936;12.742;2022-08-05T13:34:50;34.80;27.20
36280;DHT22;22317;47.936;12.742;2022-08-05T13:37:21;35.00;27.10
36280;DHT22;22317;47.936;12.742;2022-08-05T13:39:50;35.20;26.50
36280;DHT22;22317;47.936;12.742;2022-08-05T13:42:20;35.30;26.20
36280;DHT22;22317;47.936;12.742;2022-08-05T13:44:53;35.50;26.30
36280;DHT22;22317;47.936;12.742;2022-08-05T13:47:19;35.60;26.00
36280;DHT22;22317;47.936;12.742;2022-08-05T13:49:45;35.60;26.00
36280;DHT22;22317;47.936;12.742;2022-08-05T13:52:22;35.50;25.70
36280;DHT22;22317;47.936;12.742;2022-08-05T13:54:50;35.30;25.40
36280;DHT22;22317;47.936;12.742;2022-08-05T13:57:16;35.20;25.50
36280;DHT22;22317;47.936;12.742;2022-08-05T13:59:43;35.00;25.30
36280;DHT22;22317;47.936;12.742;2022-08-05T14:02:11;34.80;25.50
36280;DHT22;22317;47.936;12.742;2022-08-05T14:04:45;34.80;26.00
36280;DHT22;22317;47.936;12.742;2022-08-05T14:07:33;35.00;26.30
36280;DHT22;22317;47.936;12.742;2022-08-05T14:10:00;35.30;26.40
36280;DHT22;22317;47.936;12.742;2022-08-05T14:12:26;35.50;26.50
36280;DHT22;22317;47.936;12.742;2022-08-05T14:14:52;35.70;26.20
36280;DHT22;22317;47.936;12.742;2022-08-05T14:17:18;35.80;25.70
36280;DHT22;22317;47.936;12.742;2022-08-05T14:19:44;35.90;25.60
36280;DHT22;22317;47.936;12.742;2022-08-05T14:22:10;35.90;25.60
36280;DHT22;22317;47.936;12.742;2022-08-05T14:24:36;35.90;25.70
36280;DHT22;22317;47.936;12.742;2022-08-05T14:27:04;36.00;25.70
36280;DHT22;22317;47.936;12.742;2022-08-05T14:29:30;36.00;25.60
36280;DHT22;22317;47.936;12.742;2022-08-05T14:31:56;36.00;25.40
36280;DHT22;22317;47.936;12.742;2022-08-05T14:34:22;35.90;25.10
36280;DHT22;22317;47.936;12.742;2022-08-05T14:36:47;35.60;25.10
36280;DHT22;22317;47.936;12.742;2022-08-05T14:39:13;35.80;25.30
36280;DHT22;22317;47.936;12.742;2022-08-05T14:41:39;35.20;25.30
36280;DHT22;22317;47.936;12.742;2022-08-05T14:44:05;34.90;25.40
36280;DHT22;22317;47.936;12.742;2022-08-05T14:46:31;34.80;25.70
36280;DHT22;22317;47.936;12.742;2022-08-05T14:48:59;34.60;25.70
36280;DHT22;22317;47.936;12.742;2022-08-05T14:51:25;34.40;25.80
36280;DHT22;22317;47.936;12.742;2022-08-05T14:53:51;34.10;25.80
36280;DHT22;22317;47.936;12.742;2022-08-05T14:56:17;32.40;25.20
36280;DHT22;22317;47.936;12.742;2022-08-05T14:58:42;33.50;26.10
36280;DHT22;22317;47.936;12.742;2022-08-05T15:01:08;33.20;26.20
36280;DHT22;22317;47.936;12.742;2022-08-05T15:03:35;32.90;26.40
36280;DHT22;22317;47.936;12.742;2022-08-05T15:06:02;32.60;27.20
36280;DHT22;22317;47.936;12.742;2022-08-05T15:08:28;32.30;27.00
36280;DHT22;22317;47.936;12.742;2022-08-05T15:10:53;32.10;27.20
36280;DHT22;22317;47.936;12.742;2022-08-05T15:13:19;31.80;27.40
36280;DHT22;22317;47.936;12.742;2022-08-05T15:15:45;31.50;27.60
36280;DHT22;22317;47.936;12.742;2022-08-05T15:18:11;31.20;27.80
36280;DHT22;22317;47.936;12.742;2022-08-05T15:20:37;30.90;28.00
36280;DHT22;22317;47.936;12.742;2022-08-05T15:23:08;30.70;28.30
36280;DHT22;22317;47.936;12.742;2022-08-05T15:25:35;30.50;28.70
36280;DHT22;22317;47.936;12.742;2022-08-05T15:28:01;30.30;28.90
36280;DHT22;22317;47.936;12.742;2022-08-05T15:30:27;29.90;28.70
36280;DHT22;22317;47.936;12.742;2022-08-05T15:32:56;29.90;29.30
36280;DHT22;22317;47.936;12.742;2022-08-05T15:35:22;29.70;29.50
36280;DHT22;22317;47.936;12.742;2022-08-05T15:37:48;29.50;29.70
36280;DHT22;22317;47.936;12.742;2022-08-05T15:40:14;29.30;30.00
36280;DHT22;22317;47.936;12.742;2022-08-05T15:42:40;29.10;30.20
36280;DHT22;22317;47.936;12.742;2022-08-05T15:45:06;29.40;30.90
36280;DHT22;22317;47.936;12.742;2022-08-05T15:47:32;28.90;30.90
36280;DHT22;22317;47.936;12.742;2022-08-05T15:49:58;28.70;31.10
36280;DHT22;22317;47.936;12.742;2022-08-05T15:52:23;28.60;31.30
36280;DHT22;22317;47.936;12.742;2022-08-05T15:54:50;28.30;31.30
36280;DHT22;22317;47.936;12.742;2022-08-05T15:57:17;28.20;31.80
36280;DHT22;22317;47.936;12.742;2022-08-05T15:59:44;28.10;32.10
36280;DHT22;22317;47.936;12.742;2022-08-05T16:02:10;28.00;32.50
36280;DHT22;22317;47.936;12.742;2022-08-05T16:04:36;27.80;32.80
36280;DHT22;22317;47.936;12.742;2022-08-05T16:07:01;27.80;33.40
36280;DHT22;22317;47.936;12.742;2022-08-05T16:09:27;27.70;33.70
36280;DHT22;22317;47.936;12.742;2022-08-05T16:11:53;27.60;34.00